KEVB/EVB METAR and TAF weather

Enter ICAO airport designator
Station Type Date Time Source
KEVB METAR 2019/08/23 17:47 UTC NOAA

KEVB 231747Z 04007KT 7SM SCT014 BKN024 30/25 A3003


Station Type Date Time Source
KEVB Decoded METAR 2019/08/23 17:47 UTC NOAA

Station name not available
Aug 23, 2019 - 01:47 PM EDT / 2019.08.23 1747 UTC
Wind: from the NE (040 degrees) at 8 MPH (7 KT):0
Visibility: 7 mile(s):0
Sky conditions: mostly cloudy
Temperature: 86 F (30 C)
Heat index: 96.8 F (36.0 C):1
Dew Point: 77 F (25 C)
Relative Humidity: 74%
Pressure (altimeter): 30.03 in. Hg (1016 hPa)
ob: KEVB 231747Z 04007KT 7SM SCT014 BKN024 30/25 A3003
cycle: 18

Station Type Date Time Source
KEVB TAF UTC NOAA

Error!

Example: see airport list